Time;durP1;ratioP1;P1;durP2;ratioP2;P2;SDS_P1;SDS_P2;PMS_P1;PMS_P2;Temp;Humidity;BMP_temperature;BMP_pressure;BME280_temperature;BME280_humidity;BME280_pressure;Samples;Min_cycle;Max_cycle;Signal;HPM_P1;HPM_P2
2021/09/03 00:01:14;;;;;;;5.95;5.40;;;;;;;18.48;51.06;95035.07;827312;71;33095;-79
2021/09/03 00:16:21;;;;;;;6.28;5.67;;;;;;;18.40;51.42;95026.05;827971;71;29721;-78
2021/09/03 00:17:25;;;;;;;5.22;4.83;;;;;;;18.36;51.39;95022.48;808387;73;26676;-78
2021/09/03 00:31:19;;;;;;;6.45;5.70;;;;;;;18.29;51.90;95012.14;829801;71;29757;-78
2021/09/03 00:46:38;;;;;;;5.87;4.87;;;;;;;18.13;52.02;95002.67;827620;71;33001;-77
2021/09/03 01:01:24;;;;;;;5.55;5.12;;;;;;;18.03;52.89;95000.39;828619;71;32728;-79
2021/09/03 01:16:19;;;;;;;5.62;5.10;;;;;;;17.93;53.06;94993.57;828860;70;32652;-77
2021/09/03 01:31:29;;;;;;;5.83;5.33;;;;;;;17.80;53.45;94978.86;827818;71;33002;-77
2021/09/03 01:46:23;;;;;;;6.30;5.80;;;;;;;17.62;54.15;94964.90;827844;71;30320;-77
2021/09/03 02:01:29;;;;;;;5.12;4.72;;;;;;;17.53;54.63;94964.70;833722;71;33586;-78
2021/09/03 02:16:25;;;;;;;5.50;5.00;;;;;;;17.41;54.76;94945.48;827836;71;32742;-78
2021/09/03 02:31:16;;;;;;;6.00;5.50;;;;;;;17.34;54.65;94919.47;834687;71;30207;-79
2021/09/03 02:46:19;;;;;;;6.00;5.50;;;;;;;17.28;54.88;94914.67;827399;71;32751;-77
2021/09/03 03:16:10;;;;;;;7.58;5.22;;;;;;;17.43;56.74;94934.00;827849;71;31056;-79
2021/09/03 03:31:32;;;;;;;7.60;5.90;;;;;;;17.92;55.10;94928.28;827351;71;32751;-81
2021/09/03 03:46:27;;;;;;;5.83;5.28;;;;;;;18.16;53.94;94952.31;827577;71;32838;-80
2021/09/03 04:01:24;;;;;;;7.37;6.15;;;;;;;18.11;53.62;94961.05;827267;71;32476;-79
2021/09/03 04:16:16;;;;;;;7.65;6.90;;;;;;;19.04;51.12;94967.50;828333;71;28684;-80
2021/09/03 04:31:30;;;;;;;10.88;7.60;;;;;;;20.10;48.68;94967.98;834147;71;29281;-79
2021/09/03 04:46:22;;;;;;;30.62;27.73;;;;;;;22.01;45.88;94971.70;834065;71;31773;-78
2021/09/03 05:01:10;;;;;;;8.95;7.95;;;;;;;21.45;44.99;94966.64;828172;71;29238;-78
2021/09/03 05:16:45;;;;;;;7.95;7.22;;;;;;;22.22;45.88;94951.89;827356;71;32214;-82
2021/09/03 05:31:19;;;;;;;7.97;7.10;;;;;;;23.31;43.34;94968.88;834566;71;28803;-81
2021/09/03 05:46:37;;;;;;;8.17;7.27;;;;;;;24.04;41.37;94972.31;817493;71;31848;-83
2021/09/03 06:01:23;;;;;;;9.67;8.33;;;;;;;24.26;40.55;94979.31;822223;71;32205;-82
2021/09/03 06:16:21;;;;;;;8.50;7.70;;;;;;;23.86;41.04;94982.77;821533;71;31845;-83
2021/09/03 06:31:11;;;;;;;9.50;7.10;;;;;;;24.14;40.42;94979.73;829003;71;29381;-81
2021/09/03 06:46:22;;;;;;;7.53;6.77;;;;;;;24.73;38.87;94976.64;819695;71;28858;-78
2021/09/03 07:01:23;;;;;;;8.83;7.17;;;;;;;24.54;37.28;94978.35;819592;71;31087;-78
2021/09/03 07:16:24;;;;;;;8.53;7.73;;;;;;;23.90;38.53;94968.09;824339;71;31872;-78
2021/09/03 07:31:15;;;;;;;9.17;8.27;;;;;;;22.58;41.42;94978.82;828295;71;29203;-77
2021/09/03 07:32:19;;;;;;;9.30;8.40;;;;;;;22.58;41.53;94986.08;808392;73;25285;-76
2021/09/03 07:46:12;;;;;;;9.43;7.50;;;;;;;23.40;40.24;94990.28;828315;71;28716;-77
2021/09/03 08:16:45;;;;;;;7.00;6.30;;;;;;;24.75;36.14;94942.92;827846;71;32701;-78
2021/09/03 08:31:25;;;;;;;7.77;7.07;;;;;;;24.57;37.21;94938.73;828553;71;32469;-79
2021/09/03 08:46:19;;;;;;;6.90;6.30;;;;;;;26.15;35.45;94905.05;827964;71;30511;-78
2021/09/03 09:16:17;;;;;;;7.47;6.67;;;;;;;24.13;35.51;94905.80;833892;71;30175;-79
2021/09/03 09:31:29;;;;;;;7.37;6.77;;;;;;;23.09;37.42;94903.48;827449;71;32661;-80
2021/09/03 09:46:13;;;;;;;7.17;6.47;;;;;;;23.53;36.47;94890.40;832515;71;29786;-79
2021/09/03 10:01:15;;;;;;;24.87;22.53;;;;;;;24.78;35.82;94872.98;827363;71;32756;-77
2021/09/03 10:16:09;;;;;;;10.17;8.20;;;;;;;25.89;34.18;94844.78;827982;71;29737;-80
2021/09/03 10:31:22;;;;;;;8.90;8.07;;;;;;;25.98;33.63;94844.66;827692;71;32834;-84
2021/09/03 10:46:22;;;;;;;6.60;6.10;;;;;;;26.32;33.60;94832.87;824166;71;29700;-83
2021/09/03 11:01:40;;;;;;;7.10;6.50;;;;;;;27.51;32.89;94820.23;793488;74;32882;-84
2021/09/03 11:16:55;;;;;;;;;;;;;;;;;;;;;
2021/09/03 11:31:17;;;;;;;6.67;6.13;;;;;;;;;;828277;71;32688;-81
2021/09/03 11:46:20;;;;;;;12.07;8.50;;;;;;;;;;828874;71;29839;-87
2021/09/03 12:01:20;;;;;;;6.57;5.97;;;;;;;26.17;33.15;94764.79;833710;71;32783;-82
2021/09/03 12:16:25;;;;;;;6.00;5.53;;;;;;;26.36;33.29;94745.61;835480;71;32767;-81
2021/09/03 12:31:47;;;;;;;5.80;5.40;;;;;;;25.76;33.46;94725.47;829092;71;32952;-83
2021/09/03 12:46:30;;;;;;;6.93;6.33;;;;;;;26.02;33.48;94706.75;827314;71;33174;-81
2021/09/03 13:01:18;;;;;;;5.93;5.33;;;;;;;25.15;33.46;94703.70;828537;71;30966;-81
2021/09/03 13:16:44;;;;;;;6.30;5.70;;;;;;;24.69;34.24;94691.34;824639;71;32769;-82
2021/09/03 13:46:54;;;;;;;6.30;5.80;;;;;;;24.85;34.56;94652.90;829715;71;33003;-80
2021/09/03 14:01:56;;;;;;;6.67;5.97;;;;;;;25.15;34.33;94623.70;780683;75;32943;-80
2021/09/03 14:16:36;;;;;;;5.87;5.43;;;;;;;25.31;35.11;94619.38;833188;71;32860;-78
2021/09/03 14:31:28;;;;;;;6.33;5.73;;;;;;;24.81;34.50;94601.11;824484;71;32753;-81
2021/09/03 14:46:24;;;;;;;5.80;5.30;;;;;;;25.06;34.87;94597.20;833583;71;33190;-82
2021/09/03 15:16:35;;;;;;;;;;;;;;;;;;;;;
2021/09/03 15:31:19;;;;;;;6.13;5.63;;;;;;;23.73;36.35;94572.75;827275;71;32815;-85
2021/09/03 15:46:20;;;;;;;6.77;5.80;;;;;;;23.66;37.59;94567.31;827346;71;32207;-85
2021/09/03 16:01:21;;;;;;;7.30;6.60;;;;;;;23.38;37.67;94563.25;827833;71;31701;-87
2021/09/03 16:16:29;;;;;;;8.70;6.93;;;;;;;23.31;37.43;94561.25;829316;71;28793;-83
2021/09/03 16:31:31;;;;;;;7.70;6.60;;;;;;;23.76;38.77;94572.79;827635;71;32787;-82
2021/09/03 16:46:38;;;;;;;10.13;9.13;;;;;;;24.06;40.38;94560.40;835209;71;28710;-83
2021/09/03 17:01:20;;;;;;;8.77;7.93;;;;;;;24.21;39.37;94558.02;828535;71;28669;-84
2021/09/03 17:16:18;;;;;;;9.77;7.00;;;;;;;24.14;39.34;94577.50;834130;71;28618;-82
2021/09/03 17:31:22;;;;;;;8.80;7.07;;;;;;;23.43;42.79;94588.35;827500;71;31729;-83
2021/09/03 17:46:14;;;;;;;9.47;7.03;;;;;;;23.66;43.00;94601.60;834244;71;29246;-81
2021/09/03 18:01:11;;;;;;;9.03;8.17;;;;;;;22.89;40.96;94616.39;828302;71;28742;-78
2021/09/03 18:16:29;;;;;;;10.10;9.05;;;;;;;21.76;43.10;94635.91;834200;71;31567;-79
2021/09/03 18:31:23;;;;;;;11.55;9.90;;;;;;;21.06;44.91;94650.19;830932;71;28930;-82
2021/09/03 19:17:06;;;;;;;8.38;7.40;;;;;;;19.88;48.45;94656.28;813315;72;31901;-77
2021/09/03 19:46:28;;;;;;;19.07;8.83;;;;;;;19.90;57.76;94631.41;820716;71;29347;-82
2021/09/03 20:16:21;;;;;;;11.08;8.10;;;;;;;22.83;47.40;94618.63;821798;71;28748;-79
2021/09/03 20:31:20;;;;;;;8.40;7.50;;;;;;;23.05;44.42;94608.97;828417;71;28709;-78
2021/09/03 20:46:18;;;;;;;8.30;6.30;;;;;;;23.26;43.78;94618.41;828145;71;29389;-78
2021/09/03 21:16:14;;;;;;;9.00;7.40;;;;;;;23.12;43.73;94633.16;827860;71;32125;-78
2021/09/03 21:31:19;;;;;;;7.47;6.77;;;;;;;23.22;43.38;94610.33;833848;71;31679;-78
2021/09/03 21:46:08;;;;;;;7.53;6.73;;;;;;;23.12;43.47;94616.33;828315;71;28677;-77
2021/09/03 22:01:18;;;;;;;6.60;6.00;;;;;;;22.98;43.80;94619.58;827477;71;31784;-78
2021/09/03 22:16:12;;;;;;;7.37;5.93;;;;;;;23.06;43.69;94627.16;833993;71;29789;-76
2021/09/03 22:31:15;;;;;;;6.87;6.27;;;;;;;22.98;43.88;94611.55;833386;71;31767;-78
2021/09/03 22:46:08;;;;;;;6.60;6.00;;;;;;;22.85;43.99;94615.03;832604;71;28671;-76
2021/09/03 23:01:09;;;;;;;6.40;5.90;;;;;;;22.87;44.08;94604.73;821600;71;29274;-76
2021/09/03 23:16:27;;;;;;;7.27;6.60;;;;;;;22.83;44.10;94584.39;833764;71;31672;-79
2021/09/03 23:31:08;;;;;;;7.60;6.70;;;;;;;22.67;44.24;94592.59;827600;71;29194;-78
2021/09/03 23:46:08;;;;;;;6.80;6.03;;;;;;;22.65;44.23;94594.86;825712;71;28673;-77
